Time;durP1;ratioP1;P1;durP2;ratioP2;P2;SDS_P1;SDS_P2;PMS_P1;PMS_P2;Temp;Humidity;BMP_temperature;BMP_pressure;BME280_temperature;BME280_humidity;BME280_pressure;Samples;Min_cycle;Max_cycle;Signal;HPM_P1;HPM_P2
2022/05/15 00:01:07;;;;;;;27.20;4.65;;;11.00;99.90;;;;;;4957663;29;20130;-78
2022/05/15 00:03:33;;;;;;;27.48;4.30;;;11.00;99.90;;;;;;4971609;28;20094;-78
2022/05/15 00:06:01;;;;;;;21.30;4.15;;;11.00;99.90;;;;;;4956747;29;20050;-77
2022/05/15 00:08:29;;;;;;;24.27;4.55;;;11.00;99.90;;;;;;4956582;29;20174;-77
2022/05/15 00:10:57;;;;;;;24.70;4.47;;;11.00;99.90;;;;;;4970096;28;20154;-77
2022/05/15 00:13:23;;;;;;;27.92;5.32;;;10.90;99.90;;;;;;4956095;28;20070;-76
2022/05/15 00:15:49;;;;;;;26.27;4.33;;;10.90;99.90;;;;;;4971058;28;20050;-77
2022/05/15 00:18:19;;;;;;;23.85;4.03;;;10.90;99.90;;;;;;4956088;28;20297;-77
2022/05/15 00:20:46;;;;;;;24.42;3.75;;;10.80;99.90;;;;;;4956833;29;20058;-76
2022/05/15 00:23:12;;;;;;;35.35;4.68;;;10.80;99.90;;;;;;4955163;29;20051;-77
2022/05/15 00:25:39;;;;;;;36.67;5.95;;;10.80;99.90;;;;;;4954719;29;20126;-77
2022/05/15 00:28:05;;;;;;;26.73;4.40;;;10.70;99.90;;;;;;4956170;29;20364;-76
2022/05/15 00:30:32;;;;;;;29.60;4.78;;;10.70;99.90;;;;;;4956397;28;20051;-78
2022/05/15 00:32:58;;;;;;;23.17;4.73;;;10.70;99.90;;;;;;4955697;29;20155;-76
2022/05/15 00:35:24;;;;;;;30.55;4.10;;;10.60;99.90;;;;;;4938974;29;20303;-76
2022/05/15 00:37:50;;;;;;;29.10;4.17;;;10.60;99.90;;;;;;4956165;28;20101;-77
2022/05/15 00:40:18;;;;;;;24.83;4.60;;;10.60;99.90;;;;;;4955677;28;20059;-76
2022/05/15 00:42:44;;;;;;;29.90;4.75;;;10.60;99.90;;;;;;4955597;29;20059;-76
2022/05/15 00:45:12;;;;;;;23.53;4.40;;;10.60;99.90;;;;;;4955505;28;20476;-77
2022/05/15 00:47:40;;;;;;;;;;;10.60;99.90;;;;;;4956033;29;20283;-76
2022/05/15 00:50:09;;;;;;;18.70;4.10;;;10.50;99.90;;;;;;4970438;28;20350;-76
2022/05/15 00:52:37;;;;;;;23.42;4.03;;;10.50;99.90;;;;;;4955580;29;20047;-78
2022/05/15 00:55:03;;;;;;;20.38;4.13;;;10.50;99.90;;;;;;4954142;29;20083;-76
2022/05/15 00:57:35;;;;;;;27.13;5.07;;;10.40;99.90;;;;;;4955473;29;20534;-77
2022/05/15 01:00:04;;;;;;;23.88;4.45;;;10.40;99.90;;;;;;4955422;28;20525;-77
2022/05/15 01:02:35;;;;;;;28.10;4.45;;;10.40;99.90;;;;;;4954194;29;20374;-76
2022/05/15 01:05:02;;;;;;;27.60;4.85;;;10.30;99.90;;;;;;4954424;29;20200;-76
2022/05/15 01:07:28;;;;;;;21.95;4.28;;;10.30;99.90;;;;;;4955636;28;20134;-78
2022/05/15 01:09:53;;;;;;;24.00;3.95;;;10.30;99.90;;;;;;4955039;29;20455;-76
2022/05/15 01:12:20;;;;;;;26.73;5.10;;;10.30;99.90;;;;;;4954185;29;20110;-76
2022/05/15 01:14:47;;;;;;;32.05;4.70;;;10.20;99.90;;;;;;4954729;29;20138;-77
2022/05/15 01:17:13;;;;;;;26.33;5.18;;;10.20;99.90;;;;;;4954000;29;20047;-78
2022/05/15 01:19:41;;;;;;;23.92;5.82;;;10.20;99.90;;;;;;4954202;29;20498;-75
2022/05/15 01:22:08;;;;;;;30.15;5.57;;;10.20;99.90;;;;;;4957521;28;20078;-77
2022/05/15 01:24:35;;;;;;;28.50;4.50;;;10.10;99.90;;;;;;4955067;29;20069;-77
2022/05/15 01:27:04;;;;;;;30.25;5.05;;;10.10;99.90;;;;;;4953745;29;20047;-78
2022/05/15 01:29:34;;;;;;;26.27;4.97;;;10.10;99.90;;;;;;4955088;29;20047;-76
2022/05/15 01:32:01;;;;;;;30.58;4.30;;;10.10;99.90;;;;;;4954244;29;20221;-76
2022/05/15 01:34:27;;;;;;;27.90;4.57;;;10.10;99.90;;;;;;4953836;29;20065;-77
2022/05/15 01:36:54;;;;;;;21.57;4.40;;;10.10;99.90;;;;;;4953441;29;20067;-77
2022/05/15 01:39:19;;;;;;;21.52;5.00;;;10.00;99.90;;;;;;4953764;29;20055;-76
2022/05/15 01:41:45;;;;;;;31.95;5.95;;;10.00;99.90;;;;;;4954899;28;20054;-76
2022/05/15 01:44:11;;;;;;;26.95;4.53;;;10.00;99.90;;;;;;4954796;28;20059;-77
2022/05/15 01:46:37;;;;;;;24.55;5.50;;;10.00;99.90;;;;;;4954631;29;20051;-78
2022/05/15 01:49:06;;;;;;;29.27;5.05;;;10.00;99.90;;;;;;4954471;28;20048;-77
2022/05/15 01:51:34;;;;;;;32.58;5.57;;;10.00;99.90;;;;;;4954715;28;20047;-77
2022/05/15 01:54:01;;;;;;;27.65;4.75;;;10.00;99.90;;;;;;4953455;29;20122;-77
2022/05/15 01:56:27;;;;;;;23.45;4.65;;;10.00;99.90;;;;;;4954533;29;20085;-77
2022/05/15 01:58:53;;;;;;;25.52;4.70;;;9.90;99.90;;;;;;4954492;28;20134;-77
2022/05/15 02:01:19;;;;;;;30.15;5.15;;;9.90;99.90;;;;;;4954257;28;20133;-77
2022/05/15 02:03:45;;;;;;;26.92;4.75;;;9.80;99.90;;;;;;4954653;28;20052;-77
2022/05/15 02:06:11;;;;;;;26.98;5.25;;;9.80;99.90;;;;;;4954662;28;20176;-77
2022/05/15 02:08:37;;;;;;;28.75;5.03;;;9.80;99.90;;;;;;4954603;29;20054;-76
2022/05/15 02:11:04;;;;;;;28.50;5.18;;;9.70;99.90;;;;;;4969044;28;20159;-77
2022/05/15 02:13:30;;;;;;;22.95;4.93;;;9.70;99.90;;;;;;4954220;29;20055;-77
2022/05/15 02:15:56;;;;;;;29.23;4.85;;;9.70;99.90;;;;;;4954702;28;20154;-77
2022/05/15 02:18:23;;;;;;;23.00;4.93;;;9.70;99.90;;;;;;4954062;29;20185;-77
2022/05/15 02:20:50;;;;;;;24.23;5.28;;;9.60;99.90;;;;;;4953238;29;20506;-77
2022/05/15 02:23:15;;;;;;;23.13;4.50;;;9.60;99.90;;;;;;4953915;29;20122;-77
2022/05/15 02:25:41;;;;;;;24.90;5.85;;;9.60;99.90;;;;;;4953351;29;20183;-77
2022/05/15 02:28:08;;;;;;;25.58;4.85;;;9.60;99.90;;;;;;4936584;29;20473;-77
2022/05/15 02:30:34;;;;;;;29.58;5.32;;;9.50;99.90;;;;;;4954774;29;20051;-76
2022/05/15 02:33:00;;;;;;;30.88;5.53;;;9.50;99.90;;;;;;4953224;29;20114;-76
2022/05/15 02:35:26;;;;;;;33.47;5.57;;;9.50;99.90;;;;;;4955721;28;20134;-77
2022/05/15 02:37:52;;;;;;;21.15;4.63;;;9.50;99.90;;;;;;4958142;28;20051;-78
2022/05/15 02:40:20;;;;;;;31.67;6.18;;;9.50;99.90;;;;;;4962487;29;20051;-77
2022/05/15 02:42:46;;;;;;;28.33;5.53;;;9.40;99.90;;;;;;4956928;29;20122;-77
2022/05/15 02:45:12;;;;;;;36.97;5.35;;;9.40;99.90;;;;;;4956747;29;20487;-77
2022/05/15 02:47:38;;;;;;;26.40;4.87;;;9.40;99.90;;;;;;4956797;29;20053;-77
2022/05/15 02:52:50;;;;;;;29.83;6.65;;;9.30;99.90;;;;;;4964780;29;20055;-77
2022/05/15 02:55:16;;;;;;;27.98;5.40;;;9.30;99.90;;;;;;4959150;28;20518;-76
2022/05/15 02:57:42;;;;;;;26.95;6.10;;;9.30;99.90;;;;;;4957684;29;20047;-78
2022/05/15 03:00:12;;;;;;;20.77;5.38;;;9.30;99.90;;;;;;4958778;29;20047;-77
2022/05/15 03:02:40;;;;;;;26.50;5.80;;;9.30;99.90;;;;;;4961891;28;20050;-75
2022/05/15 03:05:07;;;;;;;30.38;5.50;;;9.30;99.90;;;;;;4962400;29;20057;-76
2022/05/15 03:07:33;;;;;;;;;;;9.20;99.90;;;;;;4964291;28;20055;-76
2022/05/15 03:09:58;;;;;;;26.77;5.70;;;9.20;99.90;;;;;;4961596;29;19929;-76
2022/05/15 03:12:24;;;;;;;27.15;6.30;;;9.20;99.90;;;;;;4969207;29;20055;-77
2022/05/15 03:14:51;;;;;;;26.92;5.82;;;9.20;99.90;;;;;;4967372;29;20066;-76
2022/05/15 03:17:17;;;;;;;31.92;5.65;;;9.20;99.90;;;;;;4948149;29;20082;-77
2022/05/15 03:19:44;;;;;;;27.30;5.97;;;9.10;99.90;;;;;;4963195;29;20050;-77
2022/05/15 03:22:10;;;;;;;33.90;6.05;;;9.20;99.90;;;;;;4959830;29;20047;-77
2022/05/15 03:24:35;;;;;;;31.90;6.22;;;9.20;99.90;;;;;;4961225;28;20043;-76
2022/05/15 03:27:01;;;;;;;30.83;5.90;;;9.10;99.90;;;;;;4962382;29;20476;-76
2022/05/15 03:29:27;;;;;;;31.52;6.03;;;9.10;99.90;;;;;;4966743;28;20112;-75
2022/05/15 03:31:53;;;;;;;29.98;6.38;;;9.10;99.90;;;;;;4965144;29;20102;-76
2022/05/15 03:34:19;;;;;;;29.20;6.20;;;9.10;99.90;;;;;;4964234;29;20051;-76
2022/05/15 03:36:47;;;;;;;31.27;6.53;;;9.10;99.90;;;;;;4960795;28;20078;-76
2022/05/15 03:39:14;;;;;;;30.40;5.72;;;9.10;99.90;;;;;;4965300;29;20043;-76
2022/05/15 03:41:41;;;;;;;32.15;6.72;;;9.10;99.90;;;;;;4968279;29;20055;-77
2022/05/15 03:44:08;;;;;;;33.10;6.53;;;9.10;99.90;;;;;;4967199;29;20058;-76
2022/05/15 03:46:34;;;;;;;33.33;5.93;;;9.10;99.90;;;;;;4960066;28;20047;-76
2022/05/15 03:49:00;;;;;;;24.38;6.18;;;9.10;99.90;;;;;;4958939;29;20047;-76
2022/05/15 03:51:26;;;;;;;23.95;5.57;;;9.10;99.90;;;;;;4959362;29;20070;-76
2022/05/15 03:53:53;;;;;;;23.38;6.40;;;9.00;99.90;;;;;;4960726;29;20051;-76
2022/05/15 03:56:49;;;;;;;30.55;6.80;;;9.10;99.90;;;;;;4962532;29;20054;-76
2022/05/15 03:59:07;;;;;;;27.30;6.57;;;9.10;99.90;;;;;;4958869;29;20066;-76
2022/05/15 04:01:33;;;;;;;24.42;6.78;;;9.00;99.90;;;;;;4958996;28;20376;-75
2022/05/15 04:03:59;;;;;;;26.88;6.63;;;9.00;99.90;;;;;;4958188;29;20054;-75
2022/05/15 04:06:25;;;;;;;29.23;7.17;;;9.00;99.90;;;;;;4957142;28;20505;-76
2022/05/15 04:08:51;;;;;;;29.70;6.72;;;9.00;99.90;;;;;;4957099;29;20098;-76
2022/05/15 04:11:18;;;;;;;23.58;6.07;;;9.10;99.90;;;;;;4955855;28;20134;-76
2022/05/15 04:13:44;;;;;;;30.75;6.45;;;9.10;99.90;;;;;;4973373;28;20054;-76
2022/05/15 04:16:10;;;;;;;24.33;6.50;;;9.10;99.90;;;;;;4959962;29;20061;-76
2022/05/15 04:18:37;;;;;;;21.92;5.78;;;9.10;99.90;;;;;;4965781;28;20062;-77
2022/05/15 04:21:03;;;;;;;25.85;6.78;;;9.20;99.90;;;;;;4964809;29;20047;-77
2022/05/15 04:23:29;;;;;;;24.77;6.90;;;9.20;99.90;;;;;;4964169;28;20074;-76
2022/05/15 04:25:55;;;;;;;24.27;6.13;;;9.30;99.90;;;;;;4963591;29;20070;-76
2022/05/15 04:28:21;;;;;;;27.60;6.25;;;9.40;99.90;;;;;;4983556;28;20075;-76
2022/05/15 04:30:47;;;;;;;32.55;6.28;;;9.50;99.90;;;;;;4965548;28;20114;-76
2022/05/15 04:33:12;;;;;;;30.92;7.00;;;9.50;99.90;;;;;;4948602;29;20051;-77
2022/05/15 04:35:38;;;;;;;33.30;6.97;;;9.60;99.90;;;;;;4962138;28;20054;-75
2022/05/15 04:38:04;;;;;;;24.77;6.40;;;9.70;99.90;;;;;;4946219;29;20122;-75
2022/05/15 04:40:30;;;;;;;29.33;7.07;;;9.70;99.90;;;;;;4963195;29;20102;-76
2022/05/15 04:42:55;;;;;;;29.35;7.22;;;9.80;99.90;;;;;;4962943;29;20058;-77
2022/05/15 04:45:21;;;;;;;32.03;6.18;;;9.90;99.90;;;;;;4946712;29;20134;-77
2022/05/15 04:47:47;;;;;;;24.25;5.65;;;10.00;99.90;;;;;;4963510;29;20079;-76
2022/05/15 04:50:14;;;;;;;30.95;7.10;;;10.00;99.90;;;;;;4979282;28;20047;-76
2022/05/15 04:52:40;;;;;;;;;;;10.20;99.90;;;;;;4963735;29;20087;-76
2022/05/15 04:55:06;;;;;;;22.10;5.80;;;10.20;99.90;;;;;;4964190;28;19926;-76
2022/05/15 04:57:33;;;;;;;31.88;5.90;;;10.20;99.90;;;;;;4962021;28;20047;-75
2022/05/15 04:59:58;;;;;;;26.98;6.63;;;10.30;99.90;;;;;;4962681;29;20078;-78
2022/05/15 05:02:24;;;;;;;26.65;6.07;;;10.40;99.90;;;;;;4963700;29;20151;-77
2022/05/15 05:04:50;;;;;;;27.35;7.32;;;10.50;99.90;;;;;;4931231;29;20051;-76
2022/05/15 05:07:15;;;;;;;23.42;5.85;;;10.50;99.90;;;;;;4945629;29;20108;-76
2022/05/15 05:09:41;;;;;;;31.33;6.22;;;10.60;99.90;;;;;;4962735;29;20082;-76
2022/05/15 05:12:08;;;;;;;21.23;5.93;;;10.70;99.90;;;;;;4962569;29;20150;-77
2022/05/15 05:14:34;;;;;;;28.60;5.70;;;10.80;99.90;;;;;;4955816;29;20055;-77
2022/05/15 05:16:59;;;;;;;33.58;6.43;;;10.90;99.90;;;;;;4955081;29;20043;-76
2022/05/15 05:19:25;;;;;;;27.23;5.65;;;10.90;99.90;;;;;;4954653;28;20097;-78
2022/05/15 05:21:51;;;;;;;24.80;5.65;;;11.00;99.90;;;;;;4955506;28;20047;-76
2022/05/15 05:24:16;;;;;;;27.08;6.25;;;11.10;99.90;;;;;;4953513;29;20355;-77
2022/05/15 05:26:42;;;;;;;30.05;6.97;;;11.20;99.90;;;;;;4954374;29;20050;-76
2022/05/15 05:29:08;;;;;;;28.58;5.80;;;11.20;99.90;;;;;;4954694;29;20074;-77
2022/05/15 05:31:34;;;;;;;23.20;4.63;;;11.30;99.90;;;;;;4953440;29;20051;-77
2022/05/15 05:33:59;;;;;;;24.58;5.13;;;11.40;99.90;;;;;;4953716;29;20058;-77
2022/05/15 05:36:25;;;;;;;25.95;5.70;;;11.60;99.90;;;;;;4954036;29;20096;-77
2022/05/15 05:38:51;;;;;;;24.40;5.38;;;11.60;99.90;;;;;;4955090;29;20053;-76
2022/05/15 05:41:16;;;;;;;25.65;5.25;;;11.70;99.90;;;;;;4953562;28;20082;-75
2022/05/15 05:43:42;;;;;;;23.58;5.22;;;11.80;99.90;;;;;;4953107;29;20157;-77
2022/05/15 05:46:08;;;;;;;27.35;5.60;;;11.80;99.90;;;;;;4957036;29;20102;-77
2022/05/15 05:48:34;;;;;;;19.70;4.90;;;11.90;99.90;;;;;;4942126;29;20047;-77
2022/05/15 05:51:00;;;;;;;28.80;5.03;;;11.90;99.90;;;;;;4960574;28;20373;-78
2022/05/15 05:53:25;;;;;;;23.33;6.35;;;12.00;99.90;;;;;;4957576;28;20177;-76
2022/05/15 05:55:52;;;;;;;22.23;4.93;;;12.10;99.90;;;;;;4955019;29;20133;-77
2022/05/15 05:58:17;;;;;;;21.17;5.63;;;12.20;99.90;;;;;;4953581;29;20091;-75
2022/05/15 06:00:43;;;;;;;25.50;4.93;;;12.20;99.90;;;;;;4954475;29;20066;-76
2022/05/15 06:05:54;;;;;;;20.55;5.07;;;12.40;99.90;;;;;;4953367;29;20063;-76
2022/05/15 06:08:20;;;;;;;25.38;5.35;;;12.40;99.90;;;;;;4953833;28;20134;-77
2022/05/15 06:10:47;;;;;;;19.38;4.63;;;12.40;99.90;;;;;;4956548;29;20074;-76
2022/05/15 06:13:13;;;;;;;23.10;4.95;;;12.50;99.90;;;;;;4959540;28;20403;-77
2022/05/15 06:15:40;;;;;;;19.85;5.15;;;12.60;99.90;;;;;;4958410;29;20058;-76
2022/05/15 06:18:07;;;;;;;22.48;4.40;;;12.70;99.90;;;;;;4959643;29;20145;-77
2022/05/15 06:20:33;;;;;;;27.02;5.43;;;12.80;99.90;;;;;;4958070;29;20043;-76
2022/05/15 06:22:59;;;;;;;20.83;5.10;;;12.80;99.90;;;;;;4959101;28;20051;-77
2022/05/15 06:25:25;;;;;;;20.60;4.32;;;12.90;99.90;;;;;;4957446;29;20369;-76
2022/05/15 06:27:51;;;;;;;19.73;4.27;;;13.10;99.90;;;;;;4973056;28;20440;-76
2022/05/15 06:30:18;;;;;;;22.00;4.60;;;13.10;99.90;;;;;;4956881;29;20084;-76
2022/05/15 06:32:43;;;;;;;19.63;4.77;;;13.20;99.90;;;;;;4958691;29;20377;-78
2022/05/15 06:35:11;;;;;;;19.75;3.83;;;13.20;99.90;;;;;;4957641;29;20301;-77
2022/05/15 06:37:37;;;;;;;21.90;4.43;;;13.40;99.90;;;;;;4958657;29;20148;-76
2022/05/15 06:40:06;;;;;;;16.60;3.83;;;13.50;99.90;;;;;;4958873;28;20059;-76
2022/05/15 06:42:32;;;;;;;21.73;3.85;;;13.60;99.90;;;;;;4957122;29;20122;-78
2022/05/15 06:44:58;;;;;;;21.27;4.40;;;13.60;99.90;;;;;;4958553;29;20391;-78
2022/05/15 06:47:24;;;;;;;19.75;3.83;;;13.70;99.90;;;;;;4957475;28;20134;-78
2022/05/15 06:49:50;;;;;;;19.73;4.07;;;13.80;99.90;;;;;;4958159;29;20094;-77
2022/05/15 06:52:16;;;;;;;17.75;3.70;;;14.00;99.90;;;;;;4956961;29;20051;-77
2022/05/15 06:54:42;;;;;;;16.30;3.80;;;14.00;99.90;;;;;;4958004;29;20515;-78
2022/05/15 06:59:52;;;;;;;18.15;3.65;;;14.30;99.90;;;;;;4958312;28;20044;-76
2022/05/15 07:02:18;;;;;;;15.65;3.55;;;14.40;99.90;;;;;;4956207;29;20411;-76
2022/05/15 07:04:44;;;;;;;16.80;3.55;;;14.50;99.90;;;;;;4956323;29;20204;-77
2022/05/15 07:07:10;;;;;;;20.15;2.72;;;14.70;99.90;;;;;;4940839;29;20043;-78
2022/05/15 07:09:36;;;;;;;18.27;3.22;;;14.80;99.90;;;;;;4957385;29;20067;-76
2022/05/15 07:12:03;;;;;;;14.80;3.13;;;14.90;99.90;;;;;;4957563;29;20059;-76
2022/05/15 07:14:29;;;;;;;17.27;4.07;;;15.00;99.90;;;;;;4957408;28;20062;-76
2022/05/15 07:16:55;;;;;;;16.42;3.30;;;15.10;99.90;;;;;;4956178;29;20051;-75
2022/05/15 07:19:21;;;;;;;16.35;3.17;;;15.20;99.90;;;;;;4957798;29;20491;-77
2022/05/15 07:21:47;;;;;;;13.63;2.70;;;15.30;99.90;;;;;;4939568;29;20416;-78
2022/05/15 07:24:12;;;;;;;16.42;2.70;;;15.40;99.90;;;;;;4957311;29;20087;-77
2022/05/15 07:26:44;;;;;;;19.02;3.10;;;15.50;99.90;;;;;;4924169;29;20057;-77
2022/05/15 07:29:14;;;;;;;13.20;3.15;;;15.60;99.90;;;;;;4956920;28;20055;-78
2022/05/15 07:31:40;;;;;;;16.63;2.97;;;15.70;99.90;;;;;;4957243;28;20066;-77
2022/05/15 07:34:07;;;;;;;10.00;2.80;;;15.80;99.90;;;;;;4957270;29;20055;-78
2022/05/15 07:36:33;;;;;;;20.48;3.47;;;15.90;99.90;;;;;;4957151;28;20086;-77
2022/05/15 07:38:59;;;;;;;17.20;3.22;;;16.00;99.90;;;;;;4956954;28;20047;-77
2022/05/15 07:41:24;;;;;;;17.58;3.30;;;16.10;99.90;;;;;;4957418;28;20043;-78
2022/05/15 07:43:50;;;;;;;15.43;3.25;;;16.20;99.90;;;;;;4956409;29;20530;-78
2022/05/15 07:46:16;;;;;;;20.13;3.50;;;16.40;99.90;;;;;;4957690;29;20113;-74
2022/05/15 07:48:42;;;;;;;21.60;3.28;;;16.50;99.90;;;;;;4961528;28;20047;-78
2022/05/15 07:51:09;;;;;;;23.13;3.13;;;16.60;99.90;;;;;;4962798;29;20061;-76
2022/05/15 07:53:37;;;;;;;16.85;2.58;;;16.60;99.90;;;;;;4959710;28;20137;-76
2022/05/15 07:56:09;;;;;;;18.27;3.00;;;16.60;99.90;;;;;;4973604;28;20043;-77
2022/05/15 07:58:38;;;;;;;15.15;2.78;;;16.70;99.90;;;;;;4964060;28;20408;-77
2022/05/15 08:01:05;;;;;;;14.90;2.63;;;16.80;99.90;;;;;;4961466;28;20043;-78
2022/05/15 08:03:43;;;;;;;15.10;2.65;;;16.90;99.90;;;;;;4956897;29;20484;-77
2022/05/15 08:08:58;;;;;;;18.55;3.25;;;17.10;99.90;;;;;;4957183;29;20090;-74
2022/05/15 08:11:28;;;;;;;16.83;3.22;;;17.20;99.90;;;;;;4957731;28;20055;-75
2022/05/15 08:13:58;;;;;;;17.17;3.03;;;17.30;99.90;;;;;;4960936;29;20078;-76
2022/05/15 08:16:24;;;;;;;14.60;2.70;;;17.40;99.90;;;;;;4961035;29;20047;-77
2022/05/15 08:24:19;;;;;;;20.92;3.10;;;17.60;99.90;;;;;;4958766;29;20063;-76
2022/05/15 08:26:45;;;;;;;13.43;2.53;;;17.70;99.90;;;;;;4956206;28;20125;-78
2022/05/15 08:29:12;;;;;;;21.90;2.97;;;17.80;99.90;;;;;;4956249;29;20458;-77
2022/05/15 08:31:39;;;;;;;20.90;2.65;;;17.90;99.90;;;;;;4943395;28;20487;-78
2022/05/15 08:34:05;;;;;;;24.13;2.55;;;17.90;99.90;;;;;;4980974;28;20036;-77
2022/05/15 08:36:32;;;;;;;20.83;3.85;;;18.10;99.90;;;;;;4964484;28;20408;-75
2022/05/15 08:38:58;;;;;;;20.35;2.67;;;18.10;99.90;;;;;;4962856;29;20054;-77
2022/05/15 08:41:45;;;;;;;19.20;2.92;;;18.20;99.90;;;;;;4960571;28;20047;-77
2022/05/15 08:44:18;;;;;;;18.45;2.80;;;18.20;99.90;;;;;;4959082;29;20059;-77
2022/05/15 08:46:50;;;;;;;15.25;2.92;;;18.30;99.90;;;;;;4957185;28;20392;-77
2022/05/15 08:49:21;;;;;;;22.83;3.40;;;18.40;99.90;;;;;;4957039;29;20085;-77
2022/05/15 08:51:59;;;;;;;19.48;3.05;;;18.50;99.90;;;;;;4962337;29;20051;-78
2022/05/15 08:54:26;;;;;;;14.23;2.35;;;18.60;99.90;;;;;;4961299;28;20091;-77
2022/05/15 08:56:54;;;;;;;19.23;3.05;;;18.70;99.90;;;;;;4960087;28;20188;-78
2022/05/15 08:59:25;;;;;;;17.05;2.60;;;18.80;99.90;;;;;;4965404;29;20109;-77
2022/05/15 09:01:55;;;;;;;19.70;2.63;;;18.90;99.90;;;;;;4965626;29;20085;-77
2022/05/15 09:04:21;;;;;;;22.60;3.42;;;19.00;99.30;;;;;;4980105;28;20115;-77
2022/05/15 09:07:08;;;;;;;27.92;3.33;;;19.10;98.40;;;;;;4930502;29;20437;-78
2022/05/15 09:09:46;;;;;;;22.58;3.40;;;19.10;97.90;;;;;;4950044;29;20388;-78
2022/05/15 09:12:20;;;;;;;15.32;2.85;;;19.10;97.50;;;;;;4941044;29;20047;-78
2022/05/15 09:15:04;;;;;;;15.27;2.75;;;19.20;97.70;;;;;;4971904;28;20061;-78
2022/05/15 09:17:44;;;;;;;15.07;2.83;;;19.30;97.70;;;;;;4957109;28;20055;-80
2022/05/15 09:20:16;;;;;;;24.23;3.25;;;19.40;96.30;;;;;;4955821;29;20047;-77
2022/05/15 09:23:19;;;;;;;17.73;2.92;;;19.50;96.60;;;;;;4958906;28;20062;-77
2022/05/15 09:25:55;;;;;;;19.70;2.80;;;19.60;96.00;;;;;;4956465;29;20505;-77
2022/05/15 09:28:23;;;;;;;17.20;3.13;;;19.70;96.20;;;;;;4955535;29;20089;-78
2022/05/15 09:30:50;;;;;;;23.73;3.17;;;19.80;95.40;;;;;;4954503;29;20294;-77
2022/05/15 09:33:40;;;;;;;19.88;3.17;;;19.70;94.80;;;;;;4938549;29;20094;-78
2022/05/15 09:36:30;;;;;;;20.75;2.63;;;19.70;94.20;;;;;;4954655;29;20049;-78
2022/05/15 09:39:25;;;;;;;20.80;3.13;;;19.70;93.60;;;;;;4955860;29;20062;-77
2022/05/15 09:45:09;;;;;;;18.50;2.63;;;19.70;92.70;;;;;;4955744;28;20051;-77
2022/05/15 09:47:43;;;;;;;21.65;2.70;;;19.80;92.40;;;;;;4954713;29;20043;-78
2022/05/15 09:50:30;;;;;;;17.35;2.92;;;19.90;92.60;;;;;;4956028;28;20042;-80
2022/05/15 09:52:57;;;;;;;20.70;3.17;;;19.80;91.90;;;;;;4957692;29;20526;-79
2022/05/15 09:55:25;;;;;;;17.77;3.10;;;20.10;92.20;;;;;;4955885;29;20059;-79
2022/05/15 09:58:01;;;;;;;19.25;2.75;;;20.20;92.00;;;;;;4955461;29;20479;-78
2022/05/15 10:00:31;;;;;;;20.55;3.33;;;20.30;90.70;;;;;;4970152;28;20491;-77
2022/05/15 10:03:03;;;;;;;18.65;2.97;;;20.30;91.80;;;;;;4954909;28;20118;-77
2022/05/15 10:05:36;;;;;;;17.88;3.08;;;20.50;91.50;;;;;;4957948;29;20090;-79
2022/05/15 10:08:03;;;;;;;15.35;2.75;;;20.50;91.10;;;;;;4956749;29;20047;-78
2022/05/15 10:10:51;;;;;;;19.70;2.83;;;20.50;90.50;;;;;;4957913;29;20098;-78
2022/05/15 10:13:26;;;;;;;17.58;2.70;;;20.60;90.30;;;;;;4957090;29;20051;-79
2022/05/15 10:15:53;;;;;;;18.33;3.35;;;20.70;87.90;;;;;;4972440;28;20059;-77
2022/05/15 10:18:23;;;;;;;18.25;2.78;;;20.70;88.10;;;;;;4955077;29;20138;-77
2022/05/15 10:20:52;;;;;;;19.63;3.05;;;20.60;88.00;;;;;;4957378;29;20471;-77
2022/05/15 10:23:29;;;;;;;17.10;2.85;;;20.60;85.40;;;;;;4957618;29;20098;-79
2022/05/15 10:25:57;;;;;;;20.73;3.08;;;20.60;86.30;;;;;;4958357;28;20402;-79
2022/05/15 10:28:33;;;;;;;20.02;3.10;;;20.70;85.60;;;;;;4958501;29;20051;-77
2022/05/15 10:31:04;;;;;;;21.00;2.97;;;20.80;84.50;;;;;;4957690;29;20039;-79
2022/05/15 10:33:46;;;;;;;17.50;2.75;;;20.80;83.40;;;;;;4959328;29;20134;-80
2022/05/15 10:36:18;;;;;;;16.10;2.78;;;20.90;83.90;;;;;;4947716;29;20375;-78
2022/05/15 10:38:51;;;;;;;23.58;3.53;;;21.00;83.50;;;;;;4961588;29;20049;-79
2022/05/15 10:41:29;;;;;;;18.20;3.42;;;21.10;85.10;;;;;;4961048;29;20188;-78
2022/05/15 10:44:25;;;;;;;18.95;3.20;;;21.20;84.80;;;;;;4960446;28;20061;-78
2022/05/15 10:47:00;;;;;;;17.10;2.70;;;21.30;82.40;;;;;;4955580;29;20115;-79
2022/05/15 10:49:35;;;;;;;16.38;2.67;;;21.40;81.70;;;;;;4955460;29;20073;-77
2022/05/15 10:52:27;;;;;;;15.80;2.53;;;21.40;75.00;;;;;;4956297;28;20050;-77
2022/05/15 10:58:20;;;;;;;18.48;2.92;;;20.90;75.40;;;;;;4961183;29;20117;-80
2022/05/15 11:01:14;;;;;;;17.85;3.10;;;21.20;77.90;;;;;;4959756;29;20039;-79
2022/05/15 11:03:53;;;;;;;21.05;2.97;;;21.50;77.80;;;;;;4959519;29;20039;-80
2022/05/15 11:06:26;;;;;;;15.35;2.50;;;21.50;74.20;;;;;;4958445;29;20070;-76
2022/05/15 11:09:22;;;;;;;21.65;3.13;;;21.50;75.00;;;;;;4959851;29;20213;-78
2022/05/15 11:12:02;;;;;;;19.38;2.80;;;21.50;73.40;;;;;;4960491;28;20059;-79
2022/05/15 11:14:36;;;;;;;17.45;2.90;;;21.50;73.10;;;;;;4959780;29;20110;-78
2022/05/15 11:17:29;;;;;;;17.80;3.13;;;21.50;72.80;;;;;;4959952;28;20051;-77
2022/05/15 11:20:04;;;;;;;19.00;2.85;;;21.30;71.20;;;;;;4959692;29;20039;-77
2022/05/15 11:22:34;;;;;;;16.08;3.20;;;21.60;72.70;;;;;;4960274;29;20082;-79
2022/05/15 11:25:22;;;;;;;15.85;3.10;;;21.70;70.10;;;;;;4962123;29;20043;-77
2022/05/15 11:27:55;;;;;;;17.85;2.85;;;21.80;71.00;;;;;;4967053;29;20043;-80
2022/05/15 11:30:37;;;;;;;20.70;2.88;;;22.00;72.10;;;;;;4967439;29;20054;-79
2022/05/15 11:33:24;;;;;;;15.27;3.00;;;21.90;67.80;;;;;;4982933;28;20109;-78
2022/05/15 11:36:05;;;;;;;18.65;3.13;;;22.00;68.50;;;;;;4966898;28;20087;-79
2022/05/15 11:39:02;;;;;;;21.60;2.95;;;22.00;67.90;;;;;;4966999;29;20047;-77
2022/05/15 11:41:34;;;;;;;14.18;2.88;;;22.00;67.90;;;;;;4965852;29;20062;-80
2022/05/15 11:44:12;;;;;;;15.13;2.67;;;22.20;69.30;;;;;;4966141;28;20066;-78
2022/05/15 11:46:47;;;;;;;14.13;2.55;;;22.40;68.90;;;;;;4966193;29;20050;-80
2022/05/15 11:49:22;;;;;;;20.00;3.33;;;22.50;67.30;;;;;;4965089;29;20109;-80
2022/05/15 11:52:16;;;;;;;16.25;2.83;;;22.60;65.90;;;;;;4979387;28;20102;-78
2022/05/15 11:54:45;;;;;;;12.88;2.55;;;22.70;65.40;;;;;;4971535;29;20047;-79
2022/05/15 11:57:31;;;;;;;15.30;2.60;;;22.60;65.50;;;;;;4972958;29;20040;-78
2022/05/15 11:59:59;;;;;;;16.15;2.75;;;22.40;65.40;;;;;;4985883;28;20122;-77
2022/05/15 12:02:31;;;;;;;17.10;2.47;;;22.60;65.60;;;;;;4968933;29;20043;-79
2022/05/15 12:05:01;;;;;;;16.65;2.85;;;22.60;66.50;;;;;;4966622;29;20134;-78
2022/05/15 12:07:49;;;;;;;14.40;2.63;;;22.60;66.40;;;;;;4966062;28;20142;-77
2022/05/15 12:10:38;;;;;;;13.05;3.38;;;22.70;65.20;;;;;;4952258;29;20047;-80
2022/05/15 12:13:04;;;;;;;17.85;2.92;;;22.80;63.60;;;;;;4968390;28;20051;-77
2022/05/15 12:15:41;;;;;;;13.50;3.22;;;22.70;61.50;;;;;;4968951;29;20078;-78
2022/05/15 12:18:29;;;;;;;16.25;3.03;;;22.50;61.60;;;;;;4969544;29;20039;-80
2022/05/15 12:20:56;;;;;;;15.40;2.53;;;22.30;61.00;;;;;;4969146;29;20043;-79
2022/05/15 12:23:38;;;;;;;16.75;2.67;;;22.40;64.30;;;;;;4946713;29;20059;-78
2022/05/15 12:26:33;;;;;;;13.90;2.40;;;22.60;65.40;;;;;;4964561;29;20114;-79
2022/05/15 12:29:17;;;;;;;14.73;2.85;;;22.70;63.60;;;;;;4965245;29;20054;-77
2022/05/15 12:31:46;;;;;;;12.90;2.78;;;22.70;64.00;;;;;;4969928;29;20047;-78
2022/05/15 12:34:23;;;;;;;15.48;2.67;;;22.70;63.50;;;;;;4968397;28;20046;-77
2022/05/15 12:36:56;;;;;;;11.02;2.33;;;22.70;62.00;;;;;;4967134;28;20074;-78
2022/05/15 12:39:25;;;;;;;14.18;2.72;;;22.70;61.70;;;;;;4963104;29;20132;-79
2022/05/15 12:41:52;;;;;;;13.75;3.00;;;22.70;61.00;;;;;;4967716;28;20122;-78
2022/05/15 12:44:33;;;;;;;16.85;2.67;;;22.70;62.60;;;;;;4967992;29;20043;-79
2022/05/15 12:47:02;;;;;;;14.50;2.72;;;22.80;62.70;;;;;;4965466;28;20047;-80
2022/05/15 12:49:39;;;;;;;17.27;3.05;;;22.90;62.00;;;;;;4963077;29;20085;-78
2022/05/15 12:52:14;;;;;;;13.57;2.22;;;22.90;61.40;;;;;;4963283;29;20078;-79
2022/05/15 12:54:56;;;;;;;15.57;2.78;;;23.00;58.60;;;;;;4963410;28;20054;-79
2022/05/15 12:57:21;;;;;;;14.52;2.58;;;23.00;58.70;;;;;;4962441;29;20043;-79
2022/05/15 12:59:49;;;;;;;13.13;2.37;;;23.00;59.00;;;;;;4962284;29;20051;-79
2022/05/15 13:02:35;;;;;;;19.73;3.00;;;23.00;59.00;;;;;;4962109;28;20397;-79
2022/05/15 13:05:23;;;;;;;13.95;2.40;;;22.90;55.00;;;;;;4961390;29;20039;-78
2022/05/15 13:07:55;;;;;;;16.13;2.90;;;22.90;58.80;;;;;;4963204;29;20055;-79
2022/05/15 13:10:23;;;;;;;12.43;2.80;;;22.90;58.00;;;;;;4963356;28;20098;-78
2022/05/15 13:13:04;;;;;;;19.55;2.72;;;22.90;58.30;;;;;;4946531;29;20043;-79
2022/05/15 13:15:32;;;;;;;13.65;2.35;;;23.10;57.20;;;;;;4962664;28;20106;-78
2022/05/15 13:18:08;;;;;;;17.85;2.65;;;23.10;57.60;;;;;;4961516;28;20050;-79